Terminal Aerodrome Forecast
Issued by NWS

Home | Current Version | Previous Version | Text Only | Print | Product List | Glossary On
Versions: 1 2 3 4 5 6 7 8 9 10 11 12 13 14 15 16 17
083
FTAK31 PAJN 230849 AAB
TAFAJN
TAF AMD
PAJN 230849Z 2309/2406 12014G24KT 5SM -RASN BR FEW004 SCT027 OVC035
     FM231500 VRB04KT 1 1/2SM -SN BKN008 OVC015
     FM232000 VRB04KT P6SM SCT015 BKN035 OVC080=

USA.gov is the U.S. government's official web portal to all federal, state and local government web resources and services.